createdAt,value
2022-10-30T00:03:17.964Z,3.42
2022-10-30T00:13:23.191Z,4.03
2022-10-30T00:18:25.448Z,4.32
2022-10-30T00:23:27.492Z,4.00
2022-10-30T00:28:29.508Z,3.97
2022-10-30T00:33:31.939Z,3.63
2022-10-30T00:38:34.038Z,3.62
2022-10-30T00:43:40.417Z,3.72
2022-10-30T00:48:46.205Z,3.55
2022-10-30T00:53:49.213Z,4.93
2022-10-30T00:58:57.183Z,4.10
2022-10-30T01:04:02.392Z,3.78
2022-10-30T01:09:05.185Z,3.95
2022-10-30T01:14:11.226Z,4.75
2022-10-30T01:19:28.326Z,5.35
2022-10-30T01:24:45.641Z,4.35
2022-10-30T01:30:14.692Z,3.97
2022-10-30T01:35:26.239Z,4.10
2022-10-30T01:40:28.720Z,4.72
2022-10-30T01:46:04.426Z,4.57
2022-10-30T01:51:39.955Z,4.12
2022-10-30T01:57:00.868Z,4.25
2022-10-30T02:02:04.577Z,5.05
2022-10-30T02:07:07.013Z,4.97
2022-10-30T02:12:10.975Z,4.78
2022-10-30T02:17:14.468Z,5.00
2022-10-30T02:22:18.214Z,4.93
2022-10-30T02:27:20.491Z,5.07
2022-10-30T02:32:22.587Z,4.72
2022-10-30T02:37:24.732Z,4.22
2022-10-30T02:47:29.436Z,4.85
2022-10-30T02:52:32.383Z,5.97
2022-10-30T02:57:34.410Z,7.00
2022-10-30T03:02:36.505Z,6.30
2022-10-30T03:07:39.135Z,6.78
2022-10-30T03:12:41.313Z,5.22
2022-10-30T03:17:43.555Z,4.28
2022-10-30T03:22:46.678Z,4.50
2022-10-30T03:27:48.999Z,3.97
2022-10-30T03:32:51.369Z,5.03
2022-10-30T03:37:53.545Z,4.62
2022-10-30T03:42:55.962Z,3.78
2022-10-30T03:47:58.708Z,4.45
2022-10-30T03:53:03.381Z,4.40
2022-10-30T03:58:07.046Z,4.57
2022-10-30T04:03:10.639Z,4.25
2022-10-30T04:08:14.905Z,4.28
2022-10-30T04:13:20.203Z,3.95
2022-10-30T04:18:22.992Z,4.25
2022-10-30T04:23:25.157Z,6.12
2022-10-30T04:28:27.957Z,5.07
2022-10-30T04:38:34.213Z,3.47
2022-10-30T04:43:37.229Z,3.63
2022-10-30T04:48:40.958Z,3.40
2022-10-30T04:53:43.770Z,4.68
2022-10-30T04:58:48.479Z,3.58
2022-10-30T05:03:53.751Z,3.33
2022-10-30T05:08:57.865Z,3.65
2022-10-30T05:14:00.917Z,4.40
2022-10-30T05:19:03.004Z,5.65
2022-10-30T05:24:05.771Z,3.85
2022-10-30T05:29:10.231Z,3.53
2022-10-30T05:34:14.181Z,3.43
2022-10-30T05:39:16.705Z,3.28
2022-10-30T05:44:29.233Z,3.22
2022-10-30T05:49:43.082Z,2.75
2022-10-30T05:54:46.646Z,2.43
2022-10-30T05:59:49.313Z,2.70
2022-10-30T06:04:51.457Z,3.22
2022-10-30T06:09:54.648Z,2.87
2022-10-30T06:14:56.874Z,3.10
2022-10-30T06:19:59.392Z,2.28
2022-10-30T06:25:04.041Z,3.73
2022-10-30T06:30:08.263Z,5.10
2022-10-30T06:40:13.076Z,4.17
2022-10-30T06:45:19.156Z,4.43
2022-10-30T06:50:22.524Z,4.33
2022-10-30T06:55:25.004Z,6.40
2022-10-30T07:00:28.773Z,12.17
2022-10-30T07:05:31.618Z,7.43
2022-10-30T07:10:34.102Z,2.80
2022-10-30T07:15:37.742Z,2.07
2022-10-30T07:25:42.702Z,1.87
2022-10-30T07:30:45.100Z,2.10
2022-10-30T07:35:48.714Z,2.00
2022-10-30T07:40:54.201Z,2.22
2022-10-30T07:45:57.543Z,2.03
2022-10-30T07:51:01.117Z,2.13
2022-10-30T07:56:03.761Z,3.47
2022-10-30T08:01:10.385Z,2.43
2022-10-30T08:06:12.908Z,3.25
2022-10-30T08:11:15.095Z,3.28
2022-10-30T08:16:18.160Z,3.42
2022-10-30T08:21:21.033Z,4.35
2022-10-30T08:26:24.824Z,5.75
2022-10-30T08:31:27.834Z,5.32
2022-10-30T08:36:36.085Z,7.12
2022-10-30T08:41:38.222Z,5.87
2022-10-30T08:46:40.341Z,6.10
2022-10-30T08:51:44.262Z,8.88
2022-10-30T08:56:46.500Z,7.22
2022-10-30T09:01:51.152Z,6.40
2022-10-30T09:07:01.882Z,5.95
2022-10-30T09:12:06.538Z,8.10
2022-10-30T09:17:10.051Z,7.43
2022-10-30T09:22:12.383Z,7.70
2022-10-30T09:27:15.193Z,6.85
2022-10-30T09:32:17.926Z,6.75
2022-10-30T09:37:23.108Z,6.82
2022-10-30T09:42:50.519Z,6.50
2022-10-30T09:48:20.929Z,7.25
2022-10-30T09:53:35.233Z,6.18
2022-10-30T09:59:19.972Z,5.47
2022-10-30T10:04:51.296Z,6.12
2022-10-30T10:10:04.046Z,7.55
2022-10-30T10:15:32.625Z,6.32
2022-10-30T10:20:41.990Z,6.43
2022-10-30T10:25:52.420Z,6.93
2022-10-30T10:31:28.451Z,6.32
2022-10-30T10:37:02.738Z,6.95
2022-10-30T10:42:25.624Z,7.15
2022-10-30T10:47:47.928Z,6.47
2022-10-30T10:52:55.672Z,7.47
2022-10-30T10:58:05.943Z,5.50
2022-10-30T11:08:28.185Z,5.62
2022-10-30T11:13:34.922Z,7.75
2022-10-30T11:18:37.139Z,5.45
2022-10-30T11:23:44.575Z,5.57
2022-10-30T11:28:52.912Z,4.97
2022-10-30T11:33:55.415Z,6.30
2022-10-30T11:44:12.197Z,6.40
2022-10-30T11:49:34.925Z,5.55
2022-10-30T11:54:42.024Z,4.90
2022-10-30T11:59:46.804Z,5.70
2022-10-30T12:04:51.621Z,4.65
2022-10-30T12:09:54.409Z,5.00
2022-10-30T12:15:08.483Z,6.32
2022-10-30T12:20:15.072Z,4.93
2022-10-30T12:25:31.951Z,4.65
2022-10-30T12:30:41.734Z,5.50
2022-10-30T12:35:49.784Z,5.18
2022-10-30T12:41:24.698Z,5.68
2022-10-30T12:46:27.071Z,4.78
2022-10-30T12:51:38.040Z,3.70
2022-10-30T12:56:45.631Z,4.60
2022-10-30T13:02:04.805Z,3.75
2022-10-30T13:07:28.028Z,5.70
2022-10-30T13:12:35.329Z,4.78
2022-10-30T13:17:37.507Z,4.90
2022-10-30T13:28:21.376Z,3.97
2022-10-30T13:33:54.847Z,3.80
2022-10-30T13:39:20.241Z,4.25
2022-10-30T13:44:59.852Z,5.78
2022-10-30T13:50:14.295Z,3.40
2022-10-30T13:55:23.929Z,3.78
2022-10-30T14:00:54.978Z,4.72
2022-10-30T14:06:32.533Z,4.05
2022-10-30T14:11:34.977Z,4.80
2022-10-30T14:21:51.913Z,3.22
2022-10-30T14:27:03.187Z,3.23
2022-10-30T14:32:14.139Z,4.18
2022-10-30T14:37:18.850Z,4.30
2022-10-30T14:42:43.135Z,4.70
2022-10-30T14:47:55.347Z,4.10
2022-10-30T14:53:24.832Z,3.87
2022-10-30T14:58:31.616Z,3.83
2022-10-30T15:03:52.299Z,4.03
2022-10-30T15:09:09.435Z,4.40
2022-10-30T15:20:01.540Z,6.12
2022-10-30T15:25:04.866Z,5.87
2022-10-30T15:30:14.711Z,4.65
2022-10-30T15:35:22.401Z,5.78
2022-10-30T15:40:25.078Z,4.10
2022-10-30T15:45:39.881Z,4.25
2022-10-30T15:50:52.307Z,3.80
2022-10-30T15:55:58.840Z,3.67
2022-10-30T16:01:02.284Z,4.10
2022-10-30T16:06:17.964Z,4.28
2022-10-30T16:11:22.620Z,4.45
2022-10-30T16:16:30.711Z,4.37
2022-10-30T16:21:35.484Z,4.50
2022-10-30T16:26:38.685Z,6.15
2022-10-30T16:31:44.495Z,8.07
2022-10-30T16:36:46.999Z,6.00
2022-10-30T16:41:49.664Z,7.00
2022-10-30T16:46:56.215Z,5.90
2022-10-30T16:52:03.024Z,5.20
2022-10-30T16:57:17.438Z,4.78
2022-10-30T17:02:22.279Z,4.75
2022-10-30T17:07:26.080Z,4.32
2022-10-30T17:12:29.511Z,5.57
2022-10-30T17:17:38.146Z,4.80
2022-10-30T17:22:40.756Z,3.87
2022-10-30T17:27:50.076Z,3.60
2022-10-30T17:32:54.660Z,3.50
2022-10-30T17:37:59.825Z,5.75
2022-10-30T17:43:04.811Z,5.05
2022-10-30T17:48:15.348Z,4.87
2022-10-30T17:53:23.137Z,5.78
2022-10-30T17:58:25.255Z,7.80
2022-10-30T18:03:27.538Z,6.47
2022-10-30T18:08:29.722Z,5.03
2022-10-30T18:13:31.912Z,3.95
2022-10-30T18:18:34.102Z,2.10
2022-10-30T18:23:51.761Z,2.70
2022-10-30T18:28:54.927Z,2.90
2022-10-30T18:33:56.986Z,2.53
2022-10-30T18:38:59.069Z,2.95
2022-10-30T18:44:01.508Z,2.72
2022-10-30T18:49:03.623Z,3.70
2022-10-30T18:54:15.107Z,5.25
2022-10-30T18:59:17.309Z,8.93
2022-10-30T19:04:22.360Z,5.93
2022-10-30T19:09:24.854Z,4.22
2022-10-30T19:14:26.939Z,4.12
2022-10-30T19:19:29.063Z,4.37
2022-10-30T19:24:31.157Z,4.90
2022-10-30T19:29:33.283Z,6.62
2022-10-30T19:34:35.452Z,4.78
2022-10-30T19:39:37.602Z,4.43
2022-10-30T19:44:39.730Z,5.35
2022-10-30T19:49:41.935Z,3.85
2022-10-30T19:54:43.992Z,3.97
2022-10-30T19:59:46.065Z,3.60
2022-10-30T20:04:48.734Z,3.57
2022-10-30T20:09:51.246Z,3.53
2022-10-30T20:14:53.360Z,4.15
2022-10-30T20:19:55.969Z,3.85
2022-10-30T20:24:58.575Z,4.18
2022-10-30T20:30:00.708Z,4.95
2022-10-30T20:35:07.401Z,6.50
2022-10-30T20:40:15.498Z,10.07
2022-10-30T20:45:23.621Z,7.80
2022-10-30T20:50:25.729Z,5.25
2022-10-30T20:55:28.315Z,6.47
2022-10-30T21:00:30.614Z,5.00
2022-10-30T21:05:50.117Z,4.47
2022-10-30T21:10:52.717Z,4.60
2022-10-30T21:15:55.194Z,5.35
2022-10-30T21:21:01.783Z,4.87
2022-10-30T21:26:06.613Z,5.28
2022-10-30T21:31:12.309Z,4.78
2022-10-30T21:36:17.280Z,4.97
2022-10-30T21:41:21.735Z,4.50
2022-10-30T21:46:26.303Z,4.68
2022-10-30T21:51:28.494Z,3.57
2022-10-30T21:56:30.967Z,4.15
2022-10-30T22:01:35.940Z,3.60
2022-10-30T22:06:41.225Z,4.47
2022-10-30T22:11:44.416Z,4.83
2022-10-30T22:16:48.139Z,3.45
2022-10-30T22:21:50.303Z,4.45
2022-10-30T22:26:52.373Z,4.57
2022-10-30T22:31:54.643Z,4.13
2022-10-30T22:48:25.809Z,2.60
2022-10-30T22:53:29.225Z,3.72
2022-10-30T22:58:31.378Z,3.17
2022-10-30T23:03:33.495Z,2.08
2022-10-30T23:08:36.551Z,1.70
2022-10-30T23:13:40.396Z,2.00
2022-10-30T23:18:43.066Z,2.07
2022-10-30T23:23:45.282Z,1.62
2022-10-30T23:28:48.972Z,1.62
2022-10-30T23:33:53.412Z,1.70
2022-10-30T23:38:58.104Z,2.10
2022-10-30T23:44:04.364Z,1.63
2022-10-30T23:49:06.475Z,2.50
2022-10-30T23:54:08.649Z,2.33
2022-10-30T23:59:10.894Z,2.15
